Time;durP1;ratioP1;P1;durP2;ratioP2;P2;SDS_P1;SDS_P2;PMS_P1;PMS_P2;Temp;Humidity;BMP_temperature;BMP_pressure;BME280_temperature;BME280_humidity;BME280_pressure;Samples;Min_cycle;Max_cycle;Signal;HPM_P1;HPM_P2
2023/03/24 00:00:20;;;;;;;0.00;0.00;;;8.90;99.90;;;;;;5068913;28;20016;-76
2023/03/24 00:02:50;;;;;;;0.10;0.10;;;8.80;99.90;;;;;;5072818;28;20518;-79
2023/03/24 00:05:21;;;;;;;0.00;0.00;;;8.80;99.90;;;;;;5063972;28;20055;-77
2023/03/24 00:07:47;;;;;;;0.00;0.00;;;8.90;99.90;;;;;;5070126;28;20066;-77
2023/03/24 00:10:21;;;;;;;0.00;0.00;;;8.80;99.90;;;;;;5067739;28;20489;-76
2023/03/24 00:12:51;;;;;;;0.00;0.00;;;8.80;99.90;;;;;;5064435;28;20327;-76
2023/03/24 00:15:20;;;;;;;1.83;1.75;;;8.70;99.90;;;;;;5067629;28;20024;-77
2023/03/24 00:17:49;;;;;;;0.10;0.10;;;8.70;99.90;;;;;;5067701;28;20068;-76
2023/03/24 00:20:21;;;;;;;0.00;0.00;;;8.70;99.90;;;;;;5067490;28;20017;-76
2023/03/24 00:22:49;;;;;;;0.10;0.10;;;8.50;99.90;;;;;;5068525;28;20064;-76
2023/03/24 00:25:22;;;;;;;0.00;0.00;;;8.50;99.90;;;;;;5069231;28;20020;-76
2023/03/24 00:27:50;;;;;;;0.00;0.00;;;8.50;99.90;;;;;;5064891;28;20392;-77
2023/03/24 00:30:17;;;;;;;25.90;23.95;;;8.50;99.90;;;;;;5067054;28;20021;-77
2023/03/24 00:32:44;;;;;;;0.10;0.10;;;8.50;99.90;;;;;;5065462;28;20262;-76
2023/03/24 00:35:11;;;;;;;0.15;0.15;;;8.50;99.90;;;;;;5048496;28;20028;-76
2023/03/24 00:37:38;;;;;;;0.10;0.10;;;8.50;99.90;;;;;;5065535;28;20139;-77
2023/03/24 00:40:11;;;;;;;0.00;0.00;;;8.50;99.90;;;;;;5065618;28;20036;-76
2023/03/24 00:42:39;;;;;;;0.10;0.10;;;8.50;99.90;;;;;;5066468;28;20021;-76
2023/03/24 00:45:08;;;;;;;0.10;0.10;;;8.60;99.90;;;;;;5065505;28;20041;-77
2023/03/24 00:47:39;;;;;;;0.00;0.00;;;8.50;99.90;;;;;;5065245;28;20089;-76
2023/03/24 00:50:08;;;;;;;0.10;0.10;;;8.50;99.90;;;;;;5064663;28;20035;-76
2023/03/24 00:52:34;;;;;;;1.77;1.67;;;8.50;99.90;;;;;;5063725;28;20028;-76
2023/03/24 00:55:02;;;;;;;0.10;0.10;;;8.40;99.90;;;;;;5064938;28;20036;-76
2023/03/24 00:57:35;;;;;;;3.05;2.90;;;8.40;99.90;;;;;;5065226;28;20032;-76
2023/03/24 01:00:13;;;;;;;0.10;0.10;;;8.40;99.90;;;;;;5064262;28;20025;-77
2023/03/24 01:02:39;;;;;;;0.10;0.10;;;8.40;99.90;;;;;;5062530;28;20447;-76
2023/03/24 01:05:05;;;;;;;0.10;0.10;;;8.40;99.90;;;;;;5064427;28;20031;-76
2023/03/24 01:07:32;;;;;;;0.10;0.10;;;8.40;99.90;;;;;;5063332;28;20020;-76
2023/03/24 01:09:58;;;;;;;0.10;0.10;;;8.30;99.90;;;;;;5060366;28;20020;-76
2023/03/24 01:12:33;;;;;;;0.00;0.00;;;8.30;99.90;;;;;;5060010;28;20363;-76
2023/03/24 01:15:01;;;;;;;0.10;0.10;;;8.20;99.90;;;;;;5060847;28;20032;-76
2023/03/24 01:17:29;;;;;;;0.10;0.10;;;8.20;99.90;;;;;;5061129;28;20507;-76
2023/03/24 01:19:56;;;;;;;0.20;0.20;;;8.20;99.90;;;;;;5059195;28;20509;-76
2023/03/24 01:22:28;;;;;;;0.20;0.20;;;8.10;99.90;;;;;;5060694;28;20123;-77
2023/03/24 01:24:54;;;;;;;0.10;0.10;;;8.80;99.90;;;;;;5060816;28;20028;-76
2023/03/24 01:27:22;;;;;;;0.10;0.10;;;;;;;;;;5063973;28;20094;-77
2023/03/24 01:29:47;;;;;;;0.00;0.00;;;8.00;99.90;;;;;;5070416;28;20103;-76
2023/03/24 01:32:14;;;;;;;0.00;0.00;;;8.60;99.90;;;;;;5066372;28;20055;-76
2023/03/24 01:34:40;;;;;;;0.40;0.40;;;;;;;;;;5065513;28;20036;-76
2023/03/24 01:37:06;;;;;;;0.10;0.10;;;7.90;99.90;;;;;;5077358;28;20121;-76
2023/03/24 01:39:32;;;;;;;0.10;0.10;;;7.90;99.90;;;;;;5061324;28;20120;-76
2023/03/24 01:41:58;;;;;;;0.00;0.00;;;7.90;99.90;;;;;;5062915;28;20165;-76
2023/03/24 01:44:30;;;;;;;0.10;0.10;;;7.90;99.90;;;;;;5061060;28;20582;-76
2023/03/24 01:46:57;;;;;;;0.10;0.10;;;7.90;99.90;;;;;;5060942;28;20363;-79
2023/03/24 01:49:25;;;;;;;0.10;0.10;;;8.70;99.90;;;;;;5061595;28;20031;-76
2023/03/24 01:51:57;;;;;;;0.20;0.20;;;7.90;99.90;;;;;;5062516;28;20699;-76
2023/03/24 01:54:28;;;;;;;0.10;0.10;;;7.80;99.90;;;;;;5064094;28;20044;-76
2023/03/24 01:57:17;;;;;;;0.10;0.10;;;7.80;99.90;;;;;;5066326;28;20021;-76
2023/03/24 01:59:47;;;;;;;0.10;0.10;;;7.80;99.90;;;;;;5071482;28;20470;-76
2023/03/24 02:02:14;;;;;;;0.10;0.10;;;7.80;99.90;;;;;;5070003;28;20039;-76
2023/03/24 02:04:43;;;;;;;0.05;0.05;;;7.80;99.90;;;;;;5069443;28;20403;-76
2023/03/24 02:07:18;;;;;;;0.80;0.80;;;7.70;99.90;;;;;;5065008;28;20028;-76
2023/03/24 02:09:45;;;;;;;0.10;0.10;;;7.70;99.90;;;;;;5060870;28;20106;-76
2023/03/24 02:12:12;;;;;;;0.10;0.10;;;;;;;;;;5060400;28;20035;-76
2023/03/24 02:14:38;;;;;;;0.20;0.20;;;7.60;99.90;;;;;;5061092;28;20016;-76
2023/03/24 02:17:07;;;;;;;0.10;0.10;;;7.50;99.90;;;;;;5060486;28;20530;-76
2023/03/24 02:19:45;;;;;;;0.10;0.10;;;7.50;99.90;;;;;;5060115;28;20195;-76
2023/03/24 02:22:47;;;;;;;0.17;0.17;;;7.50;99.90;;;;;;5060128;28;20426;-77
2023/03/24 02:25:35;;;;;;;0.10;0.10;;;7.50;99.90;;;;;;4997470;28;20530;-76
2023/03/24 02:28:10;;;;;;;0.10;0.10;;;7.50;99.90;;;;;;4976802;28;20042;-77
2023/03/24 02:31:02;;;;;;;0.10;0.10;;;7.50;99.90;;;;;;4977748;28;20088;-76
2023/03/24 02:34:14;;;;;;;0.00;0.00;;;7.50;99.90;;;;;;4961926;28;20674;-76
2023/03/24 02:36:40;;;;;;;0.00;0.00;;;7.40;99.90;;;;;;4901248;29;20174;-77
2023/03/24 02:39:53;;;;;;;0.10;0.10;;;7.30;99.90;;;;;;4910037;29;20291;-77
2023/03/24 02:42:41;;;;;;;0.10;0.10;;;7.30;99.90;;;;;;4885737;29;20439;-77
2023/03/24 02:45:22;;;;;;;13.70;12.93;;;7.30;99.90;;;;;;4885969;29;20061;-77
2023/03/24 02:48:24;;;;;;;0.10;0.10;;;7.10;99.90;;;;;;4890824;29;20061;-75
2023/03/24 02:50:56;;;;;;;0.13;0.13;;;7.10;99.90;;;;;;4882335;29;20069;-77
2023/03/24 02:53:24;;;;;;;0.20;0.20;;;7.00;99.90;;;;;;4871307;29;20057;-77
2023/03/24 02:56:06;;;;;;;0.20;0.20;;;7.10;99.90;;;;;;4872518;29;20618;-76
2023/03/24 02:58:44;;;;;;;0.10;0.10;;;7.10;99.90;;;;;;4880343;29;20256;-76
2023/03/24 03:01:31;;;;;;;0.10;0.10;;;8.40;99.90;;;;;;4913951;29;20060;-76
2023/03/24 03:04:07;;;;;;;0.13;0.13;;;7.10;99.90;;;;;;4918326;29;20032;-76
2023/03/24 03:06:39;;;;;;;0.10;0.10;;;8.80;99.90;;;;;;4932658;29;20111;-76
2023/03/24 03:09:11;;;;;;;0.10;0.10;;;7.10;99.90;;;;;;4920368;29;20621;-76
2023/03/24 03:11:39;;;;;;;0.10;0.10;;;7.00;99.90;;;;;;4928561;28;20107;-77
2023/03/24 03:14:26;;;;;;;0.10;0.10;;;6.90;99.90;;;;;;5007566;28;20133;-76
2023/03/24 03:16:59;;;;;;;0.10;0.10;;;6.90;99.90;;;;;;5022586;28;20535;-76
2023/03/24 03:19:33;;;;;;;0.13;0.13;;;6.90;99.90;;;;;;5061572;28;20097;-76
2023/03/24 03:22:03;;;;;;;0.10;0.10;;;7.00;99.90;;;;;;5066502;28;20050;-76
2023/03/24 03:24:36;;;;;;;0.08;0.08;;;7.00;99.90;;;;;;5072838;28;20572;-76
2023/03/24 03:27:08;;;;;;;0.10;0.10;;;7.00;99.90;;;;;;5072081;28;20076;-77
2023/03/24 03:29:38;;;;;;;0.10;0.10;;;6.90;99.90;;;;;;5071301;28;20028;-77
2023/03/24 03:32:08;;;;;;;0.10;0.10;;;7.30;99.90;;;;;;5072335;28;20021;-77
2023/03/24 03:34:40;;;;;;;0.10;0.10;;;7.20;99.90;;;;;;5072477;28;20037;-78
2023/03/24 03:37:39;;;;;;;0.00;0.00;;;6.90;99.90;;;;;;5069764;28;20028;-77
2023/03/24 03:40:15;;;;;;;0.10;0.10;;;7.90;99.90;;;;;;5072971;28;20028;-77
2023/03/24 03:42:41;;;;;;;0.10;0.10;;;;;;;;;;5074850;28;20274;-76
2023/03/24 03:45:09;;;;;;;0.10;0.10;;;6.90;99.90;;;;;;5073712;28;20105;-77
2023/03/24 03:47:35;;;;;;;0.10;0.10;;;7.20;99.90;;;;;;5074284;28;20495;-76
2023/03/24 03:50:04;;;;;;;0.10;0.10;;;6.90;99.90;;;;;;5072192;28;20024;-76
2023/03/24 03:52:30;;;;;;;0.10;0.10;;;;;;;;;;5071592;28;20024;-76
2023/03/24 03:54:58;;;;;;;0.10;0.10;;;6.80;99.90;;;;;;5071206;28;20028;-77
2023/03/24 03:57:25;;;;;;;0.10;0.10;;;6.70;99.90;;;;;;5070786;28;20031;-76
2023/03/24 03:59:51;;;;;;;0.10;0.10;;;;;;;;;;5070623;28;20113;-76
2023/03/24 04:02:27;;;;;;;0.10;0.10;;;6.70;99.90;;;;;;5082116;28;20489;-77
2023/03/24 04:05:03;;;;;;;0.17;0.17;;;6.70;99.90;;;;;;5065190;28;20050;-77
2023/03/24 04:07:35;;;;;;;0.75;0.75;;;6.70;99.90;;;;;;5069451;28;20032;-76
2023/03/24 04:10:23;;;;;;;0.10;0.10;;;6.70;99.90;;;;;;5069169;28;20283;-77
2023/03/24 04:13:07;;;;;;;0.10;0.10;;;6.60;99.90;;;;;;5072413;28;20028;-77
2023/03/24 04:15:36;;;;;;;0.05;0.05;;;6.90;99.90;;;;;;5074324;28;20029;-76
2023/03/24 04:18:29;;;;;;;0.10;0.10;;;6.90;99.90;;;;;;5074716;28;20028;-76
2023/03/24 04:21:47;;;;;;;0.10;0.10;;;6.50;99.90;;;;;;5069845;28;20028;-77
2023/03/24 04:24:58;;;;;;;0.10;0.10;;;6.50;99.90;;;;;;5007933;28;20029;-76
2023/03/24 04:27:46;;;;;;;0.10;0.10;;;6.40;99.90;;;;;;4953430;28;20033;-76
2023/03/24 04:30:15;;;;;;;1.08;0.95;;;6.90;99.90;;;;;;4968350;28;20225;-76
2023/03/24 04:32:53;;;;;;;0.10;0.10;;;6.70;99.90;;;;;;4971409;28;20039;-77
2023/03/24 04:35:30;;;;;;;0.10;0.10;;;6.70;99.90;;;;;;4967951;28;20340;-76
2023/03/24 04:38:03;;;;;;;0.10;0.10;;;6.30;99.90;;;;;;4969770;28;20031;-76
2023/03/24 04:40:35;;;;;;;0.10;0.10;;;6.20;99.90;;;;;;4948444;28;20248;-76
2023/03/24 04:43:06;;;;;;;0.10;0.10;;;6.30;99.90;;;;;;4959951;28;20086;-76
2023/03/24 04:45:34;;;;;;;0.10;0.10;;;6.20;99.90;;;;;;4960145;28;20410;-76
2023/03/24 04:48:03;;;;;;;0.10;0.10;;;6.20;99.90;;;;;;4960733;28;20249;-76
2023/03/24 04:50:33;;;;;;;0.10;0.10;;;6.20;99.90;;;;;;4959922;28;20356;-76
2023/03/24 04:52:59;;;;;;;0.10;0.10;;;6.20;99.90;;;;;;4943376;28;20034;-77
2023/03/24 04:55:51;;;;;;;0.13;0.13;;;6.20;99.90;;;;;;4973364;28;20043;-76
2023/03/24 04:58:18;;;;;;;0.10;0.10;;;6.20;99.90;;;;;;4935139;29;20067;-77
2023/03/24 05:00:46;;;;;;;14.07;13.45;;;6.20;99.90;;;;;;4967229;28;20046;-76
2023/03/24 05:03:13;;;;;;;0.10;0.10;;;6.20;99.90;;;;;;4982111;28;20050;-76
2023/03/24 05:05:43;;;;;;;0.10;0.10;;;6.20;99.90;;;;;;4981317;28;20587;-76
2023/03/24 05:08:09;;;;;;;0.10;0.10;;;6.20;99.90;;;;;;4983012;28;20090;-77
2023/03/24 05:10:36;;;;;;;0.10;0.10;;;6.20;99.90;;;;;;4969333;28;20036;-76
2023/03/24 05:13:03;;;;;;;0.10;0.10;;;6.10;99.90;;;;;;4962846;28;20047;-76
2023/03/24 05:15:29;;;;;;;3.60;2.95;;;6.10;99.90;;;;;;4969727;28;20126;-77
2023/03/24 05:17:56;;;;;;;0.20;0.20;;;6.10;99.90;;;;;;4968839;28;20046;-77
2023/03/24 05:20:23;;;;;;;0.10;0.10;;;6.10;99.90;;;;;;4966464;28;20055;-76
2023/03/24 05:22:51;;;;;;;1.45;1.38;;;6.20;99.90;;;;;;4970019;28;20431;-76
2023/03/24 05:25:18;;;;;;;0.10;0.10;;;6.20;99.90;;;;;;4969026;28;20030;-77
2023/03/24 05:27:45;;;;;;;0.20;0.20;;;6.50;99.90;;;;;;4971161;28;20190;-77
2023/03/24 05:30:13;;;;;;;10.75;9.75;;;6.30;99.90;;;;;;4968836;28;20062;-76
2023/03/24 05:32:39;;;;;;;0.10;0.10;;;6.20;99.90;;;;;;4967275;28;20114;-77
2023/03/24 05:35:06;;;;;;;0.10;0.10;;;6.30;99.90;;;;;;5018996;28;20086;-76
2023/03/24 05:37:32;;;;;;;0.20;0.20;;;6.40;99.90;;;;;;5071661;28;20033;-77
2023/03/24 05:39:57;;;;;;;0.10;0.10;;;6.40;99.90;;;;;;5072474;28;20119;-77
2023/03/24 05:42:23;;;;;;;0.47;0.47;;;6.50;99.90;;;;;;5071364;28;20028;-76
2023/03/24 05:44:50;;;;;;;0.03;0.03;;;6.50;99.90;;;;;;5067319;28;20037;-76
2023/03/24 05:47:18;;;;;;;0.10;0.10;;;6.50;99.90;;;;;;5061829;28;20546;-77
2023/03/24 05:49:45;;;;;;;0.20;0.20;;;6.60;99.90;;;;;;5062646;28;20016;-76
2023/03/24 05:52:15;;;;;;;0.10;0.10;;;6.60;99.90;;;;;;5063077;28;20309;-76
2023/03/24 05:54:41;;;;;;;1.30;1.25;;;7.30;99.90;;;;;;5064781;28;20024;-76
2023/03/24 05:57:14;;;;;;;0.10;0.10;;;6.70;99.90;;;;;;5065684;28;20028;-76
2023/03/24 05:59:43;;;;;;;0.10;0.10;;;6.80;99.90;;;;;;5063590;28;20032;-76
2023/03/24 06:02:09;;;;;;;0.10;0.10;;;6.90;99.90;;;;;;5064788;28;20048;-76
2023/03/24 06:04:36;;;;;;;0.00;0.00;;;6.90;99.90;;;;;;5065249;28;20052;-77
2023/03/24 06:07:03;;;;;;;0.08;0.08;;;7.00;99.90;;;;;;5065678;28;20047;-77
2023/03/24 06:09:34;;;;;;;0.10;0.10;;;7.10;99.90;;;;;;5063757;28;20103;-76
2023/03/24 06:12:04;;;;;;;0.40;0.40;;;7.20;99.90;;;;;;5063104;28;20024;-77
2023/03/24 06:14:30;;;;;;;0.10;0.10;;;7.30;99.90;;;;;;5066232;28;20020;-76
2023/03/24 06:16:58;;;;;;;0.10;0.10;;;7.40;99.90;;;;;;5065497;28;20055;-76
2023/03/24 06:19:26;;;;;;;0.10;0.10;;;7.50;99.90;;;;;;5063714;28;20526;-77
2023/03/24 06:21:52;;;;;;;0.28;0.28;;;7.70;99.90;;;;;;5063699;28;20472;-77
2023/03/24 06:24:18;;;;;;;0.10;0.10;;;7.80;99.90;;;;;;5062281;28;20404;-77
2023/03/24 06:26:48;;;;;;;0.00;0.00;;;7.90;99.90;;;;;;5063090;28;20175;-77
2023/03/24 06:29:18;;;;;;;0.00;0.00;;;8.10;99.90;;;;;;5062782;28;20064;-78
2023/03/24 06:31:49;;;;;;;0.05;0.05;;;8.20;99.90;;;;;;5064895;28;20066;-76
2023/03/24 06:34:18;;;;;;;0.00;0.00;;;8.30;99.90;;;;;;5064437;28;20209;-76
2023/03/24 06:36:44;;;;;;;0.10;0.10;;;5.50;99.90;;;;;;5067057;28;20527;-77
2023/03/24 06:39:10;;;;;;;0.10;0.10;;;8.60;99.90;;;;;;5068119;28;20025;-77
2023/03/24 06:41:38;;;;;;;0.00;0.00;;;8.70;99.90;;;;;;5072862;28;20217;-77
2023/03/24 06:44:04;;;;;;;0.00;0.00;;;;;;;;;;5072554;28;20025;-76
2023/03/24 06:46:30;;;;;;;0.10;0.10;;;9.00;99.90;;;;;;5072923;28;20056;-76
2023/03/24 06:48:57;;;;;;;0.00;0.00;;;9.00;99.90;;;;;;5070161;28;20044;-76
2023/03/24 06:51:23;;;;;;;0.00;0.00;;;;;;;;;;5069059;28;20025;-77
2023/03/24 06:53:49;;;;;;;0.00;0.00;;;9.20;99.90;;;;;;5067951;28;20028;-76
2023/03/24 06:56:17;;;;;;;0.05;0.05;;;9.30;99.90;;;;;;5063749;28;20443;-77
2023/03/24 06:58:46;;;;;;;0.03;0.03;;;9.50;99.90;;;;;;5064893;28;20538;-77
2023/03/24 07:01:13;;;;;;;0.00;0.00;;;9.70;99.90;;;;;;5064479;28;20024;-76
2023/03/24 07:03:41;;;;;;;0.00;0.00;;;9.90;99.90;;;;;;5065089;28;20184;-77
2023/03/24 07:06:10;;;;;;;0.00;0.00;;;10.00;99.90;;;;;;5064605;28;20078;-77
2023/03/24 07:08:36;;;;;;;0.00;0.00;;;10.20;99.90;;;;;;5064910;28;20093;-76
2023/03/24 07:11:03;;;;;;;0.30;0.30;;;10.20;99.90;;;;;;5065443;28;20078;-77
2023/03/24 07:13:29;;;;;;;0.00;0.00;;;10.40;99.90;;;;;;5064943;28;20020;-77
2023/03/24 07:15:54;;;;;;;0.00;0.00;;;10.60;99.90;;;;;;5065650;28;20526;-77
2023/03/24 07:18:20;;;;;;;34.90;15.55;;;10.70;99.90;;;;;;5064729;28;20044;-76
2023/03/24 07:20:47;;;;;;;0.63;0.63;;;10.70;99.90;;;;;;5064849;28;20565;-77
2023/03/24 07:23:13;;;;;;;0.10;0.10;;;10.80;99.90;;;;;;5063822;28;20162;-77
2023/03/24 07:25:40;;;;;;;0.30;0.30;;;11.00;99.90;;;;;;5063263;28;20025;-77
2023/03/24 07:28:07;;;;;;;0.00;0.00;;;11.20;99.90;;;;;;5063465;28;20033;-77
2023/03/24 07:30:34;;;;;;;0.00;0.00;;;11.40;99.90;;;;;;5063513;28;20301;-76
2023/03/24 07:33:01;;;;;;;0.10;0.10;;;11.60;99.90;;;;;;5063182;28;20521;-77
2023/03/24 07:35:28;;;;;;;0.00;0.00;;;11.80;99.90;;;;;;5062421;28;20656;-78
2023/03/24 07:37:58;;;;;;;0.10;0.10;;;11.90;99.90;;;;;;5061927;28;20036;-76
2023/03/24 07:40:24;;;;;;;0.30;0.30;;;12.00;99.90;;;;;;5061193;28;20047;-78
2023/03/24 07:42:50;;;;;;;0.10;0.10;;;12.20;99.90;;;;;;5060684;28;20542;-77
2023/03/24 07:45:16;;;;;;;0.10;0.10;;;12.90;99.90;;;;;;5060458;28;20072;-78
2023/03/24 07:47:44;;;;;;;0.10;0.10;;;12.50;99.90;;;;;;5058500;28;20043;-78
2023/03/24 07:50:11;;;;;;;0.10;0.10;;;12.40;99.90;;;;;;5059322;28;20351;-77
2023/03/24 07:52:39;;;;;;;0.47;0.47;;;12.70;99.90;;;;;;5059365;28;20085;-78
2023/03/24 07:55:07;;;;;;;2.25;2.15;;;12.40;99.90;;;;;;5059607;28;20017;-77
2023/03/24 07:57:36;;;;;;;0.20;0.20;;;13.00;99.90;;;;;;5059399;28;20075;-78
2023/03/24 08:00:14;;;;;;;0.80;0.80;;;13.30;99.90;;;;;;5074640;28;20121;-78
2023/03/24 08:02:40;;;;;;;0.32;0.32;;;13.50;99.90;;;;;;5059310;28;20593;-78
2023/03/24 08:05:08;;;;;;;0.10;0.10;;;13.80;99.90;;;;;;5059498;28;20021;-74
2023/03/24 08:07:33;;;;;;;0.20;0.20;;;14.00;98.80;;;;;;5059166;28;20063;-78
2023/03/24 08:09:59;;;;;;;0.10;0.10;;;14.20;98.10;;;;;;5058961;28;20060;-77
2023/03/24 08:12:25;;;;;;;0.08;0.08;;;14.40;95.70;;;;;;5059491;28;20016;-84
2023/03/24 08:14:51;;;;;;;0.10;0.10;;;14.50;94.20;;;;;;5059501;28;20032;-79
2023/03/24 08:17:17;;;;;;;0.10;0.10;;;14.60;94.60;;;;;;5059409;28;20037;-82
2023/03/24 08:19:43;;;;;;;0.40;0.40;;;14.80;93.90;;;;;;5059449;28;20024;-76
2023/03/24 08:22:09;;;;;;;0.10;0.10;;;;;;;;;;5058816;28;20062;-76
2023/03/24 08:24:35;;;;;;;0.10;0.10;;;15.30;92.50;;;;;;5058822;28;20040;-78
2023/03/24 08:27:07;;;;;;;0.10;0.10;;;15.50;92.70;;;;;;5057261;28;20039;-77
2023/03/24 08:29:33;;;;;;;0.10;0.10;;;15.60;90.20;;;;;;5058766;28;20511;-76
2023/03/24 08:32:03;;;;;;;0.10;0.10;;;15.70;90.60;;;;;;5058705;28;20057;-77
2023/03/24 08:34:29;;;;;;;0.15;0.15;;;15.90;88.40;;;;;;5058999;28;20387;-76
2023/03/24 08:36:54;;;;;;;0.30;0.30;;;16.20;89.20;;;;;;5058794;28;20154;-76
2023/03/24 08:39:20;;;;;;;0.10;0.10;;;16.50;86.00;;;;;;5058414;28;20020;-82
2023/03/24 08:41:49;;;;;;;0.10;0.10;;;16.40;83.60;;;;;;5058994;28;20027;-78
2023/03/24 08:44:15;;;;;;;0.30;0.30;;;16.70;81.20;;;;;;5059657;28;20036;-76
2023/03/24 08:46:41;;;;;;;0.20;0.20;;;16.70;82.00;;;;;;5058271;28;20127;-76
2023/03/24 08:49:07;;;;;;;0.10;0.10;;;17.00;81.40;;;;;;5059482;28;20118;-77
2023/03/24 08:51:33;;;;;;;3.03;2.80;;;17.30;78.00;;;;;;5059971;28;20086;-77
2023/03/24 08:54:00;;;;;;;1.10;1.10;;;17.20;78.00;;;;;;5058541;28;20343;-76
2023/03/24 08:56:26;;;;;;;0.10;0.10;;;17.30;76.70;;;;;;5058016;28;20378;-77
2023/03/24 08:58:52;;;;;;;0.17;0.17;;;17.50;74.90;;;;;;5058186;28;20061;-76
2023/03/24 09:01:19;;;;;;;0.40;0.40;;;17.70;75.40;;;;;;5056352;28;20035;-76
2023/03/24 09:03:46;;;;;;;0.10;0.10;;;15.40;72.20;;;;;;5058019;28;20009;-76
2023/03/24 09:06:12;;;;;;;0.15;0.15;;;18.10;73.80;;;;;;5057842;28;20505;-77
2023/03/24 09:08:39;;;;;;;0.22;0.22;;;18.60;72.50;;;;;;5057706;28;20121;-78
2023/03/24 09:11:06;;;;;;;0.25;0.25;;;17.50;71.10;;;;;;5058603;28;20289;-77
2023/03/24 09:13:32;;;;;;;1.15;0.93;;;18.40;73.40;;;;;;5060046;28;20024;-79
2023/03/24 09:16:01;;;;;;;1.08;1.08;;;18.60;69.70;;;;;;5058802;28;20105;-81
2023/03/24 09:18:30;;;;;;;0.13;0.13;;;18.70;69.80;;;;;;5060630;28;20063;-86
2023/03/24 09:20:59;;;;;;;0.10;0.10;;;18.90;68.70;;;;;;5074558;28;20025;-78
2023/03/24 09:23:24;;;;;;;0.10;0.10;;;19.00;67.60;;;;;;5056711;28;20029;-76
2023/03/24 09:25:52;;;;;;;0.10;0.10;;;19.10;69.10;;;;;;5058378;28;20078;-78
2023/03/24 09:28:19;;;;;;;0.10;0.10;;;19.30;66.90;;;;;;5058234;28;20122;-79
2023/03/24 09:30:45;;;;;;;0.10;0.10;;;19.40;66.50;;;;;;5058149;28;20100;-80
2023/03/24 09:33:15;;;;;;;0.10;0.10;;;19.60;68.60;;;;;;5056287;28;20442;-78
2023/03/24 09:35:41;;;;;;;0.32;0.32;;;19.20;62.30;;;;;;5057674;28;20317;-77
2023/03/24 09:38:11;;;;;;;0.10;0.10;;;;;;;;;;5057965;28;20100;-76
2023/03/24 09:40:38;;;;;;;0.30;0.30;;;19.90;60.10;;;;;;5073891;28;20020;-78
2023/03/24 09:43:13;;;;;;;0.35;0.35;;;19.20;60.60;;;;;;5058206;28;20341;-76
2023/03/24 09:45:51;;;;;;;0.10;0.10;;;20.10;61.80;;;;;;5058120;28;20036;-86
2023/03/24 09:48:40;;;;;;;0.10;0.10;;;20.30;61.50;;;;;;5058266;28;20040;-77
2023/03/24 09:51:20;;;;;;;0.10;0.10;;;20.20;60.30;;;;;;5073566;28;20013;-83
2023/03/24 09:53:56;;;;;;;0.10;0.10;;;20.50;60.40;;;;;;5057958;28;20021;-78
2023/03/24 09:56:28;;;;;;;0.10;0.10;;;20.60;59.30;;;;;;5072873;28;20031;-77
2023/03/24 09:59:02;;;;;;;0.20;0.20;;;20.90;59.90;;;;;;5057076;28;20016;-77
2023/03/24 10:01:28;;;;;;;0.10;0.10;;;21.00;58.80;;;;;;5055417;28;20033;-77
2023/03/24 10:04:01;;;;;;;0.10;0.10;;;21.20;59.50;;;;;;5057239;28;20028;-77
2023/03/24 10:06:40;;;;;;;0.10;0.10;;;21.30;59.00;;;;;;5055736;28;20104;-77
2023/03/24 10:09:12;;;;;;;0.10;0.10;;;21.30;58.20;;;;;;5056943;28;20294;-76
2023/03/24 10:11:47;;;;;;;0.93;0.93;;;21.20;57.90;;;;;;5056502;28;20017;-76
2023/03/24 10:14:18;;;;;;;0.75;0.65;;;21.40;56.70;;;;;;5056800;28;20028;-75
2023/03/24 10:17:04;;;;;;;0.10;0.10;;;21.30;56.60;;;;;;5056834;28;20021;-78
2023/03/24 10:19:37;;;;;;;0.10;0.10;;;21.40;56.40;;;;;;5057467;28;20039;-76
2023/03/24 10:22:12;;;;;;;2.65;1.10;;;21.40;54.90;;;;;;5056786;28;20263;-76
2023/03/24 10:24:47;;;;;;;0.68;0.63;;;21.50;55.60;;;;;;5056628;28;20507;-77
2023/03/24 10:27:23;;;;;;;0.10;0.10;;;21.60;54.70;;;;;;5056773;28;20049;-77
2023/03/24 10:29:56;;;;;;;0.00;0.00;;;21.80;54.20;;;;;;5056828;28;20071;-77
2023/03/24 10:32:25;;;;;;;0.00;0.00;;;21.70;53.80;;;;;;5056884;28;20553;-75
2023/03/24 10:34:56;;;;;;;0.50;0.50;;;21.70;53.30;;;;;;5056942;28;20259;-76
2023/03/24 10:37:22;;;;;;;0.00;0.00;;;21.60;51.90;;;;;;5056726;28;20017;-76
2023/03/24 10:39:48;;;;;;;0.00;0.00;;;21.70;52.30;;;;;;5056871;28;20044;-75
2023/03/24 10:42:22;;;;;;;0.10;0.10;;;21.60;52.10;;;;;;5056738;28;20029;-76
2023/03/24 10:44:50;;;;;;;0.20;0.20;;;21.80;52.60;;;;;;5056276;28;20086;-76
2023/03/24 10:47:21;;;;;;;0.10;0.10;;;21.60;52.70;;;;;;5056538;28;20021;-76
2023/03/24 10:50:04;;;;;;;0.10;0.10;;;22.80;52.20;;;;;;5056555;28;20029;-77
2023/03/24 10:52:42;;;;;;;0.10;0.10;;;22.30;51.50;;;;;;5056551;28;20640;-76
2023/03/24 10:55:19;;;;;;;0.10;0.10;;;22.40;51.00;;;;;;5056453;28;20025;-76
2023/03/24 10:57:49;;;;;;;0.10;0.10;;;22.70;50.70;;;;;;5055560;28;20025;-78
2023/03/24 11:00:37;;;;;;;0.10;0.10;;;22.90;50.10;;;;;;5056820;28;20067;-77
2023/03/24 11:03:11;;;;;;;0.25;0.25;;;23.10;51.10;;;;;;5055355;28;20305;-79
2023/03/24 11:05:39;;;;;;;0.10;0.10;;;23.10;50.50;;;;;;5056918;28;20032;-76
2023/03/24 11:08:32;;;;;;;0.15;0.15;;;23.00;49.00;;;;;;5056433;28;20832;-76
2023/03/24 11:10:59;;;;;;;0.10;0.10;;;22.90;49.40;;;;;;5056245;28;20013;-76
2023/03/24 11:13:32;;;;;;;0.20;0.20;;;23.20;50.40;;;;;;5056486;28;20031;-75
2023/03/24 11:16:09;;;;;;;0.20;0.20;;;23.20;48.90;;;;;;5056098;28;20453;-76
2023/03/24 11:18:34;;;;;;;0.10;0.10;;;23.10;50.00;;;;;;5055993;28;20076;-76
2023/03/24 11:21:05;;;;;;;0.10;0.10;;;23.00;49.00;;;;;;5056401;28;20479;-77
2023/03/24 11:23:33;;;;;;;1.17;1.17;;;23.20;49.60;;;;;;5059062;28;20127;-77
2023/03/24 11:26:05;;;;;;;0.00;0.00;;;23.20;48.70;;;;;;5060257;28;20020;-80
2023/03/24 11:28:39;;;;;;;0.10;0.10;;;26.20;51.20;;;;;;5061156;28;20033;-80
2023/03/24 11:31:08;;;;;;;0.10;0.10;;;23.20;48.70;;;;;;5059988;28;20132;-80
2023/03/24 11:33:42;;;;;;;0.10;0.10;;;23.20;48.90;;;;;;5061842;28;20025;-82
2023/03/24 11:36:38;;;;;;;0.10;0.10;;;23.30;49.10;;;;;;5061990;28;20013;-81
2023/03/24 11:39:25;;;;;;;0.10;0.10;;;26.80;51.40;;;;;;5061746;28;20012;-81
2023/03/24 11:42:09;;;;;;;0.08;0.08;;;23.30;49.30;;;;;;5062075;28;20036;-85
2023/03/24 11:44:54;;;;;;;0.10;0.10;;;23.50;49.10;;;;;;5060251;28;20200;-87
2023/03/24 11:47:29;;;;;;;0.10;0.10;;;23.50;49.50;;;;;;5060409;28;20043;-82
2023/03/24 11:50:00;;;;;;;0.10;0.10;;;23.60;49.30;;;;;;5061738;28;20340;-81
2023/03/24 11:52:32;;;;;;;0.10;0.10;;;23.90;50.90;;;;;;5061569;28;20500;-88
2023/03/24 11:54:58;;;;;;;0.10;0.10;;;;;;;;;;5061485;28;20027;-80
2023/03/24 11:57:46;;;;;;;0.10;0.10;;;24.30;47.60;;;;;;5077125;28;20017;-79
2023/03/24 12:00:42;;;;;;;0.10;0.10;;;24.40;47.90;;;;;;5060058;28;20111;-81
2023/03/24 12:03:49;;;;;;;0.10;0.10;;;24.30;48.30;;;;;;4982132;28;20041;-84
2023/03/24 12:07:07;;;;;;;0.52;0.52;;;24.40;48.60;;;;;;4963082;28;20038;-81
2023/03/24 12:10:10;;;;;;;0.10;0.10;;;24.30;48.60;;;;;;4957388;28;20186;-84
2023/03/24 12:12:53;;;;;;;0.10;0.10;;;24.10;48.80;;;;;;4901181;29;20036;-77
2023/03/24 12:15:24;;;;;;;0.10;0.10;;;24.10;48.90;;;;;;4900942;29;20036;-81
2023/03/24 12:18:38;;;;;;;0.10;0.10;;;24.10;48.70;;;;;;4901702;29;20087;-82
2023/03/24 12:21:11;;;;;;;;;;;24.00;48.90;;;;;;4893164;29;20032;-81
2023/03/24 12:23:49;;;;;;;0.00;0.00;;;24.20;48.70;;;;;;4901460;29;20096;-84
2023/03/24 12:26:18;;;;;;;0.10;0.10;;;24.40;49.10;;;;;;4901555;29;20242;-83
2023/03/24 12:29:28;;;;;;;0.10;0.10;;;24.60;48.70;;;;;;4901067;29;20235;-82
2023/03/24 12:31:59;;;;;;;0.30;0.30;;;24.80;48.50;;;;;;4901230;29;20044;-83
2023/03/24 12:34:25;;;;;;;0.10;0.10;;;24.80;49.00;;;;;;4901140;29;20307;-83
2023/03/24 12:37:21;;;;;;;0.10;0.10;;;25.10;48.70;;;;;;4909165;29;20123;-78
2023/03/24 12:40:24;;;;;;;0.10;0.10;;;25.30;48.80;;;;;;4894096;29;20349;-77
2023/03/24 12:43:15;;;;;;;0.10;0.10;;;24.70;48.60;;;;;;4920194;29;20035;-83
2023/03/24 12:45:41;;;;;;;0.10;0.10;;;;;;;;;;4919881;29;20082;-84
2023/03/24 12:48:47;;;;;;;0.10;0.10;;;24.80;48.20;;;;;;4904467;29;20051;-84
2023/03/24 12:51:23;;;;;;;0.20;0.20;;;24.60;48.80;;;;;;4959032;28;20125;-84
2023/03/24 12:53:57;;;;;;;0.10;0.10;;;24.50;49.00;;;;;;4945856;28;20263;-81
2023/03/24 12:56:31;;;;;;;0.10;0.10;;;24.90;48.60;;;;;;4960327;28;20054;-78
2023/03/24 12:59:21;;;;;;;0.10;0.10;;;24.90;49.20;;;;;;4961271;28;20113;-81
2023/03/24 13:01:57;;;;;;;0.10;0.10;;;25.90;49.20;;;;;;4958828;28;20229;-81
2023/03/24 13:04:34;;;;;;;0.10;0.10;;;25.20;48.70;;;;;;4959323;28;20446;-86
2023/03/24 13:07:13;;;;;;;0.10;0.10;;;25.50;49.00;;;;;;4959431;28;20522;-85
2023/03/24 13:09:54;;;;;;;0.10;0.10;;;24.90;48.50;;;;;;4959126;28;20043;-80
2023/03/24 13:12:36;;;;;;;0.00;0.00;;;25.20;48.10;;;;;;4944267;28;20038;-81
2023/03/24 13:15:10;;;;;;;0.10;0.10;;;25.10;48.60;;;;;;4959956;28;20210;-84
2023/03/24 13:17:48;;;;;;;0.10;0.10;;;25.20;48.50;;;;;;4976900;28;20033;-82
2023/03/24 13:20:31;;;;;;;0.10;0.10;;;26.30;49.50;;;;;;4981911;28;20026;-86
2023/03/24 13:23:18;;;;;;;0.10;0.10;;;25.40;48.40;;;;;;5050605;28;20036;-80